Seabourn Odyssey — C6XC6 — position and weather

sailwx.info

Track history (hours):
 
Tides and Currents Weather Stations Pressure Air Temp Water Temp Dewpoint Dewpoint Depression Visibility Wind Speed Wind Dir Waves Ship Positions

Seabourn Odyssey

Last reported at 2017-Mar-24 09:33 UTC. Time now 2017-Mar-24 10:19 UTC.
Position N 18°32' W 064°30'.

Length 198 m; draft 6.7 m.

Type: Ship. MMSI: 309416000.

Date/timePositionNaut miles runAvg speedWind from/ knotsBaromVisibWave heightAir tempDewpointWater temp
2017-Mar-24 09:33N 18°32' W 064°30'1611.8
2017-Mar-24 08:10N 18°30' W 064°14'128 2.5
2017-Mar-22 04:32N 17°22' W 062°20'10 7.6
2017-Mar-22 03:16N 17°13' W 062°16'810.8
2017-Mar-22 02:33N 17°06' W 062°12'1212.0
2017-Mar-22 01:33N 16°55' W 062°07'1212.2
2017-Mar-22 00:33N 16°44' W 062°02'1010.4
2017-Mar-21 23:33N 16°34' W 061°58'10 9.5
2017-Mar-21 22:33N 16°26' W 061°54'9 8.6
2017-Mar-21 21:33N 16°19' W 061°49'1 0.5
2017-Mar-21 20:31N 16°18' W 061°48'0 0.0
2017-Mar-21 19:31N 16°18' W 061°48'0 0.0
2017-Mar-21 18:28N 16°18' W 061°48'0 0.0
2017-Mar-21 17:31N 16°18' W 061°48'0 0.0
2017-Mar-21 16:25N 16°18' W 061°48'0 0.0
2017-Mar-21 14:31N 16°18' W 061°48'0 0.0
2017-Mar-21 13:25N 16°18' W 061°48'0 0.0
2017-Mar-21 12:16N 16°18' W 061°48'0 0.0
2017-Mar-21 11:31N 16°18' W 061°48'  
Track history (hours):
 
Tides and Currents Weather Stations Pressure Air Temp Water Temp Dewpoint Dewpoint Depression Visibility Wind Speed Wind Dir Waves Ship Positions

Seabourn Odyssey

Last reported at 2017-Mar-24 09:33 UTC. Time now 2017-Mar-24 10:19 UTC.
Position N 18°32' W 064°30'.

Length 198 m; draft 6.7 m.

Type: Ship. MMSI: 309416000.

Date/timePositionNaut miles runAvg speedWind from/ knotsBaromVisibWave heightAir tempDewpointWater temp
2017-Mar-24 09:33N 18°32' W 064°30'1611.8
2017-Mar-24 08:10N 18°30' W 064°14'128 2.5
2017-Mar-22 04:32N 17°22' W 062°20'10 7.6
2017-Mar-22 03:16N 17°13' W 062°16'810.8
2017-Mar-22 02:33N 17°06' W 062°12'1212.0
2017-Mar-22 01:33N 16°55' W 062°07'1212.2
2017-Mar-22 00:33N 16°44' W 062°02'1010.4
2017-Mar-21 23:33N 16°34' W 061°58'10 9.5
2017-Mar-21 22:33N 16°26' W 061°54'9 8.6
2017-Mar-21 21:33N 16°19' W 061°49'1 0.5
2017-Mar-21 20:31N 16°18' W 061°48'0 0.0
2017-Mar-21 19:31N 16°18' W 061°48'0 0.0
2017-Mar-21 18:28N 16°18' W 061°48'0 0.0
2017-Mar-21 17:31N 16°18' W 061°48'0 0.0
2017-Mar-21 16:25N 16°18' W 061°48'0 0.0
2017-Mar-21 14:31N 16°18' W 061°48'0 0.0
2017-Mar-21 13:25N 16°18' W 061°48'0 0.0
2017-Mar-21 12:16N 16°18' W 061°48'0 0.0
2017-Mar-21 11:31N 16°18' W 061°48'  

Dump ship's entire track history